Airfield :
LOGIN :

Register | Disclaimer

   EN    FR    IT 

 










Legend :    VFR   Marginal VFR   IFR   Intensive IFR   Very Intensive IFR
Visi :
Ceiling :
>= 8 km
>= 3000ft
5 to 8 km
1000 to 3000 ft
1500m to 5 km
500 to 1000 ft
800 to 1500m
200 to 500 ft
< 800m
< 200 ft
Symbols :   Thunderstorms  Fog  Heavy snow  Heavy precipitations  Wind > 20 kt
SIGMETs :     Misc.  Thunderstorms  Icing  Turbulence  Mountain Waves  Volcanic Ashes







- Airport Elevation : 126 ft
- IATA code : WIC
- Download approach charts


EGPC - Wick

CURRENT METAR :
  • 210850Z AUTO 24008KT 180V270 9999 FEW024/// 17/12 Q1010

EXPIRED METARs :
  • 210820Z AUTO 24008KT 200V270 9999 FEW021/// SCT028/// BKN041/// 16/12 Q1010
  • 210750Z AUTO 22006KT 9999 SCT042/// SCT048/// 15/12 Q1010
  • 210720Z AUTO 25008KT 9999 FEW043/// 15/12 Q1009
  • 210650Z AUTO 22005KT 9999 BKN042/// 15/12 Q1009
  • 210620Z AUTO 23007KT 9999 SCT033/// BKN043/// 14/12 Q1009

TAF TAF EGPC
Valid from the 21 at 09:00 until the 21 at 18:00 UTC


210759Z 2109/2118 22009KT 9999 FEW020 SCT045
PROB30
TEMPO 2110/2114 21015G25KT
BECMG 2115/2118 15012KT
ATIS : +44 1955 607 596
No reported NOTAMs for that airfield.



MET'MAP, your aeronautical weather chart ! - Copyright ORBIFLY December 2007 - Disclaimer

ORBIFLY MET'MAP TEAM :

Programming & Development : Alexandra Zaïnal
Concept & Development : Baudouin d'Aumeries
Co-Development & Prog : Marc-Olivier Méhu
Technical & hardware support : Manuel Goepfert

Contact : metmap@orbifly.com




SOURCES & CREDITS :

   NOAA